sensor_id;sensor_type;location;lat;lon;timestamp;temperature;humidity
15203;DHT22;7702;51.046;5.184;2023-05-07T00:01:46;14.50;99.90
15203;DHT22;7702;51.046;5.184;2023-05-07T00:04:12;14.40;99.90
15203;DHT22;7702;51.046;5.184;2023-05-07T00:06:39;14.30;99.90
15203;DHT22;7702;51.046;5.184;2023-05-07T00:09:05;14.40;99.90
15203;DHT22;7702;51.046;5.184;2023-05-07T00:11:31;14.40;99.90
15203;DHT22;7702;51.046;5.184;2023-05-07T00:13:58;14.40;99.90
15203;DHT22;7702;51.046;5.184;2023-05-07T00:16:23;14.40;99.90
15203;DHT22;7702;51.046;5.184;2023-05-07T00:18:49;14.40;99.90
15203;DHT22;7702;51.046;5.184;2023-05-07T00:21:15;14.30;99.90
15203;DHT22;7702;51.046;5.184;2023-05-07T00:23:41;14.30;99.90
15203;DHT22;7702;51.046;5.184;2023-05-07T00:26:07;14.30;99.90
15203;DHT22;7702;51.046;5.184;2023-05-07T00:28:33;14.30;99.90
15203;DHT22;7702;51.046;5.184;2023-05-07T00:30:58;14.30;99.90
15203;DHT22;7702;51.046;5.184;2023-05-07T00:33:24;14.30;99.90
15203;DHT22;7702;51.046;5.184;2023-05-07T00:35:52;14.30;99.90
15203;DHT22;7702;51.046;5.184;2023-05-07T00:38:17;14.30;99.90
15203;DHT22;7702;51.046;5.184;2023-05-07T00:40:43;14.40;99.90
15203;DHT22;7702;51.046;5.184;2023-05-07T00:43:09;14.40;99.90
15203;DHT22;7702;51.046;5.184;2023-05-07T00:45:34;14.40;99.90
15203;DHT22;7702;51.046;5.184;2023-05-07T00:48:01;14.40;99.90
15203;DHT22;7702;51.046;5.184;2023-05-07T00:50:28;14.40;99.90
15203;DHT22;7702;51.046;5.184;2023-05-07T00:52:55;14.50;99.90
15203;DHT22;7702;51.046;5.184;2023-05-07T00:55:22;14.40;99.90
15203;DHT22;7702;51.046;5.184;2023-05-07T00:57:49;14.50;99.90
15203;DHT22;7702;51.046;5.184;2023-05-07T01:00:16;14.40;99.90
15203;DHT22;7702;51.046;5.184;2023-05-07T01:02:42;14.50;99.90
15203;DHT22;7702;51.046;5.184;2023-05-07T01:05:14;14.50;99.90
15203;DHT22;7702;51.046;5.184;2023-05-07T01:07:42;14.50;99.90
15203;DHT22;7702;51.046;5.184;2023-05-07T01:10:08;14.50;99.90
15203;DHT22;7702;51.046;5.184;2023-05-07T01:12:36;14.50;99.90
15203;DHT22;7702;51.046;5.184;2023-05-07T01:15:03;14.40;99.90
15203;DHT22;7702;51.046;5.184;2023-05-07T01:17:36;14.40;99.90
15203;DHT22;7702;51.046;5.184;2023-05-07T01:20:03;14.40;99.90
15203;DHT22;7702;51.046;5.184;2023-05-07T01:22:32;14.40;99.90
15203;DHT22;7702;51.046;5.184;2023-05-07T01:24:58;14.40;99.90
15203;DHT22;7702;51.046;5.184;2023-05-07T01:27:25;14.40;99.90
15203;DHT22;7702;51.046;5.184;2023-05-07T01:29:51;14.40;99.90
15203;DHT22;7702;51.046;5.184;2023-05-07T01:32:21;14.40;99.90
15203;DHT22;7702;51.046;5.184;2023-05-07T01:34:48;14.40;99.90
15203;DHT22;7702;51.046;5.184;2023-05-07T01:37:15;14.50;99.90
15203;DHT22;7702;51.046;5.184;2023-05-07T01:39:41;14.50;99.90
15203;DHT22;7702;51.046;5.184;2023-05-07T01:42:07;14.50;99.90
15203;DHT22;7702;51.046;5.184;2023-05-07T01:44:33;14.50;99.90
15203;DHT22;7702;51.046;5.184;2023-05-07T01:47:01;14.50;99.90
15203;DHT22;7702;51.046;5.184;2023-05-07T01:49:28;14.50;99.90
15203;DHT22;7702;51.046;5.184;2023-05-07T01:51:53;14.50;99.90
15203;DHT22;7702;51.046;5.184;2023-05-07T01:54:25;14.50;99.90
15203;DHT22;7702;51.046;5.184;2023-05-07T01:56:53;14.50;99.90
15203;DHT22;7702;51.046;5.184;2023-05-07T01:59:18;14.50;99.90
15203;DHT22;7702;51.046;5.184;2023-05-07T02:01:44;14.50;99.90
15203;DHT22;7702;51.046;5.184;2023-05-07T02:04:10;14.50;99.90
15203;DHT22;7702;51.046;5.184;2023-05-07T02:06:35;14.50;99.90
15203;DHT22;7702;51.046;5.184;2023-05-07T02:09:01;14.50;99.90
15203;DHT22;7702;51.046;5.184;2023-05-07T02:11:27;14.50;99.90
15203;DHT22;7702;51.046;5.184;2023-05-07T02:13:53;14.50;99.90
15203;DHT22;7702;51.046;5.184;2023-05-07T02:16:19;14.40;99.90
15203;DHT22;7702;51.046;5.184;2023-05-07T02:18:45;14.40;99.90
15203;DHT22;7702;51.046;5.184;2023-05-07T02:21:11;14.50;99.90
15203;DHT22;7702;51.046;5.184;2023-05-07T02:23:36;14.50;99.90
15203;DHT22;7702;51.046;5.184;2023-05-07T02:26:03;14.50;99.90
15203;DHT22;7702;51.046;5.184;2023-05-07T02:28:29;14.50;99.90
15203;DHT22;7702;51.046;5.184;2023-05-07T02:30:55;14.40;99.90
15203;DHT22;7702;51.046;5.184;2023-05-07T02:33:23;14.50;99.90
15203;DHT22;7702;51.046;5.184;2023-05-07T02:35:49;14.50;99.90
15203;DHT22;7702;51.046;5.184;2023-05-07T02:38:17;14.50;99.90
15203;DHT22;7702;51.046;5.184;2023-05-07T02:40:43;14.50;99.90
15203;DHT22;7702;51.046;5.184;2023-05-07T02:43:09;14.50;99.90
15203;DHT22;7702;51.046;5.184;2023-05-07T02:45:34;14.50;99.90
15203;DHT22;7702;51.046;5.184;2023-05-07T02:48:01;14.50;99.90
15203;DHT22;7702;51.046;5.184;2023-05-07T02:50:27;14.50;99.90
15203;DHT22;7702;51.046;5.184;2023-05-07T02:52:52;14.50;99.90
15203;DHT22;7702;51.046;5.184;2023-05-07T02:55:18;14.50;99.90
15203;DHT22;7702;51.046;5.184;2023-05-07T02:57:44;14.50;99.90
15203;DHT22;7702;51.046;5.184;2023-05-07T03:00:17;14.50;99.90
15203;DHT22;7702;51.046;5.184;2023-05-07T03:02:44;14.50;99.90
15203;DHT22;7702;51.046;5.184;2023-05-07T03:05:10;14.50;99.90
15203;DHT22;7702;51.046;5.184;2023-05-07T03:07:37;14.50;99.90
15203;DHT22;7702;51.046;5.184;2023-05-07T03:10:03;14.40;99.90
15203;DHT22;7702;51.046;5.184;2023-05-07T03:12:30;14.50;99.90
15203;DHT22;7702;51.046;5.184;2023-05-07T03:14:56;14.50;99.90
15203;DHT22;7702;51.046;5.184;2023-05-07T03:17:22;14.50;99.90
15203;DHT22;7702;51.046;5.184;2023-05-07T03:19:47;14.40;99.90
15203;DHT22;7702;51.046;5.184;2023-05-07T03:22:13;14.50;99.90
15203;DHT22;7702;51.046;5.184;2023-05-07T03:24:39;14.50;99.90
15203;DHT22;7702;51.046;5.184;2023-05-07T03:27:05;14.50;99.90
15203;DHT22;7702;51.046;5.184;2023-05-07T03:29:31;14.40;99.90
15203;DHT22;7702;51.046;5.184;2023-05-07T03:31:56;14.40;99.90
15203;DHT22;7702;51.046;5.184;2023-05-07T03:34:23;14.40;99.90
15203;DHT22;7702;51.046;5.184;2023-05-07T03:36:49;14.40;99.90
15203;DHT22;7702;51.046;5.184;2023-05-07T03:39:15;14.40;99.90
15203;DHT22;7702;51.046;5.184;2023-05-07T03:41:40;14.40;99.90
15203;DHT22;7702;51.046;5.184;2023-05-07T03:44:06;14.40;99.90
15203;DHT22;7702;51.046;5.184;2023-05-07T03:46:33;14.50;99.90
15203;DHT22;7702;51.046;5.184;2023-05-07T03:48:59;14.40;99.90
15203;DHT22;7702;51.046;5.184;2023-05-07T03:51:25;14.40;99.90
15203;DHT22;7702;51.046;5.184;2023-05-07T03:53:51;14.40;99.90
15203;DHT22;7702;51.046;5.184;2023-05-07T03:56:23;14.40;99.90
15203;DHT22;7702;51.046;5.184;2023-05-07T03:58:52;14.50;99.90
15203;DHT22;7702;51.046;5.184;2023-05-07T04:01:17;14.40;99.90
15203;DHT22;7702;51.046;5.184;2023-05-07T04:03:43;14.40;99.90
15203;DHT22;7702;51.046;5.184;2023-05-07T04:06:09;14.40;99.90
15203;DHT22;7702;51.046;5.184;2023-05-07T04:08:35;14.40;99.90
15203;DHT22;7702;51.046;5.184;2023-05-07T04:11:00;14.50;99.90
15203;DHT22;7702;51.046;5.184;2023-05-07T04:13:26;14.50;99.90
15203;DHT22;7702;51.046;5.184;2023-05-07T04:15:54;14.50;99.90
15203;DHT22;7702;51.046;5.184;2023-05-07T04:18:20;14.50;99.90
15203;DHT22;7702;51.046;5.184;2023-05-07T04:20:47;14.60;99.90
15203;DHT22;7702;51.046;5.184;2023-05-07T04:23:13;14.60;99.90
15203;DHT22;7702;51.046;5.184;2023-05-07T04:25:39;14.60;99.90
15203;DHT22;7702;51.046;5.184;2023-05-07T04:28:05;14.60;99.90
15203;DHT22;7702;51.046;5.184;2023-05-07T04:30:31;14.60;99.90
15203;DHT22;7702;51.046;5.184;2023-05-07T04:32:57;14.60;99.90
15203;DHT22;7702;51.046;5.184;2023-05-07T04:35:23;14.60;99.90
15203;DHT22;7702;51.046;5.184;2023-05-07T04:37:48;14.60;99.90
15203;DHT22;7702;51.046;5.184;2023-05-07T04:40:14;14.60;99.90
15203;DHT22;7702;51.046;5.184;2023-05-07T04:42:40;14.60;99.90
15203;DHT22;7702;51.046;5.184;2023-05-07T04:45:06;14.70;99.90
15203;DHT22;7702;51.046;5.184;2023-05-07T04:47:31;14.70;99.90
15203;DHT22;7702;51.046;5.184;2023-05-07T04:49:58;14.70;99.90
15203;DHT22;7702;51.046;5.184;2023-05-07T04:52:24;14.70;99.90
15203;DHT22;7702;51.046;5.184;2023-05-07T04:54:50;14.70;99.90
15203;DHT22;7702;51.046;5.184;2023-05-07T04:57:16;14.70;99.90
15203;DHT22;7702;51.046;5.184;2023-05-07T04:59:43;14.70;99.90
15203;DHT22;7702;51.046;5.184;2023-05-07T05:02:10;14.80;99.90
15203;DHT22;7702;51.046;5.184;2023-05-07T05:04:36;14.80;99.90
15203;DHT22;7702;51.046;5.184;2023-05-07T05:07:02;14.80;99.90
15203;DHT22;7702;51.046;5.184;2023-05-07T05:09:31;14.90;99.90
15203;DHT22;7702;51.046;5.184;2023-05-07T05:11:57;14.90;99.90
15203;DHT22;7702;51.046;5.184;2023-05-07T05:14:22;15.00;99.90
15203;DHT22;7702;51.046;5.184;2023-05-07T05:16:48;15.00;99.90
15203;DHT22;7702;51.046;5.184;2023-05-07T05:19:15;15.00;99.90
15203;DHT22;7702;51.046;5.184;2023-05-07T05:21:40;15.20;99.90
15203;DHT22;7702;51.046;5.184;2023-05-07T05:24:06;15.30;99.90
15203;DHT22;7702;51.046;5.184;2023-05-07T05:26:32;15.30;99.90
15203;DHT22;7702;51.046;5.184;2023-05-07T05:28:58;15.30;99.90
15203;DHT22;7702;51.046;5.184;2023-05-07T05:31:23;15.30;99.90
15203;DHT22;7702;51.046;5.184;2023-05-07T05:33:50;15.30;99.90
15203;DHT22;7702;51.046;5.184;2023-05-07T05:36:16;15.30;99.90
15203;DHT22;7702;51.046;5.184;2023-05-07T05:38:42;15.40;99.90
15203;DHT22;7702;51.046;5.184;2023-05-07T05:41:07;15.50;99.90
15203;DHT22;7702;51.046;5.184;2023-05-07T05:43:33;15.50;99.90
15203;DHT22;7702;51.046;5.184;2023-05-07T05:45:59;15.60;99.90
15203;DHT22;7702;51.046;5.184;2023-05-07T05:48:25;15.70;99.90
15203;DHT22;7702;51.046;5.184;2023-05-07T05:50:51;15.80;99.90
15203;DHT22;7702;51.046;5.184;2023-05-07T05:53:17;15.80;99.90
15203;DHT22;7702;51.046;5.184;2023-05-07T05:55:43;15.90;99.90
15203;DHT22;7702;51.046;5.184;2023-05-07T05:58:09;16.00;99.90
15203;DHT22;7702;51.046;5.184;2023-05-07T06:00:34;16.10;99.90
15203;DHT22;7702;51.046;5.184;2023-05-07T06:03:00;16.20;99.90
15203;DHT22;7702;51.046;5.184;2023-05-07T06:05:26;16.20;99.90
15203;DHT22;7702;51.046;5.184;2023-05-07T06:07:52;16.30;99.90
15203;DHT22;7702;51.046;5.184;2023-05-07T06:10:17;16.40;99.90
15203;DHT22;7702;51.046;5.184;2023-05-07T06:12:43;16.40;99.90
15203;DHT22;7702;51.046;5.184;2023-05-07T06:15:10;16.50;99.90
15203;DHT22;7702;51.046;5.184;2023-05-07T06:17:36;16.60;99.90
15203;DHT22;7702;51.046;5.184;2023-05-07T06:20:02;16.60;99.90
15203;DHT22;7702;51.046;5.184;2023-05-07T06:22:27;16.60;99.90
15203;DHT22;7702;51.046;5.184;2023-05-07T06:24:53;16.60;99.90
15203;DHT22;7702;51.046;5.184;2023-05-07T06:27:20;16.70;99.90
15203;DHT22;7702;51.046;5.184;2023-05-07T06:29:47;16.60;99.90
15203;DHT22;7702;51.046;5.184;2023-05-07T06:32:13;16.70;99.90
15203;DHT22;7702;51.046;5.184;2023-05-07T06:34:40;16.80;99.90
15203;DHT22;7702;51.046;5.184;2023-05-07T06:37:07;16.90;99.90
15203;DHT22;7702;51.046;5.184;2023-05-07T06:39:33;17.10;99.90
15203;DHT22;7702;51.046;5.184;2023-05-07T06:42:00;17.30;99.90
15203;DHT22;7702;51.046;5.184;2023-05-07T06:44:26;17.40;99.90
15203;DHT22;7702;51.046;5.184;2023-05-07T06:46:52;17.50;99.90
15203;DHT22;7702;51.046;5.184;2023-05-07T06:49:17;17.60;99.90
15203;DHT22;7702;51.046;5.184;2023-05-07T06:51:43;17.70;99.90
15203;DHT22;7702;51.046;5.184;2023-05-07T06:54:09;17.80;99.90
15203;DHT22;7702;51.046;5.184;2023-05-07T06:56:35;17.80;99.90
15203;DHT22;7702;51.046;5.184;2023-05-07T06:59:01;17.90;99.90
15203;DHT22;7702;51.046;5.184;2023-05-07T07:01:28;17.90;99.90
15203;DHT22;7702;51.046;5.184;2023-05-07T07:03:53;18.10;99.90
15203;DHT22;7702;51.046;5.184;2023-05-07T07:06:19;18.10;99.90
15203;DHT22;7702;51.046;5.184;2023-05-07T07:08:45;18.30;99.90
15203;DHT22;7702;51.046;5.184;2023-05-07T07:11:11;18.40;99.90
15203;DHT22;7702;51.046;5.184;2023-05-07T07:13:37;18.50;99.90
15203;DHT22;7702;51.046;5.184;2023-05-07T07:16:02;18.70;99.90
15203;DHT22;7702;51.046;5.184;2023-05-07T07:18:28;18.80;99.90
15203;DHT22;7702;51.046;5.184;2023-05-07T07:20:54;18.80;99.90
15203;DHT22;7702;51.046;5.184;2023-05-07T07:23:20;19.10;99.90
15203;DHT22;7702;51.046;5.184;2023-05-07T07:25:46;18.90;99.90
15203;DHT22;7702;51.046;5.184;2023-05-07T07:28:12;18.90;99.90
15203;DHT22;7702;51.046;5.184;2023-05-07T07:30:39;18.90;99.90
15203;DHT22;7702;51.046;5.184;2023-05-07T07:33:04;19.10;99.90
15203;DHT22;7702;51.046;5.184;2023-05-07T07:35:34;19.20;99.90
15203;DHT22;7702;51.046;5.184;2023-05-07T07:37:59;19.40;99.90
15203;DHT22;7702;51.046;5.184;2023-05-07T07:40:25;19.60;99.90
15203;DHT22;7702;51.046;5.184;2023-05-07T07:42:52;19.70;99.90
15203;DHT22;7702;51.046;5.184;2023-05-07T07:45:18;19.80;99.90
15203;DHT22;7702;51.046;5.184;2023-05-07T07:47:44;20.00;99.90
15203;DHT22;7702;51.046;5.184;2023-05-07T07:50:10;20.00;99.90
15203;DHT22;7702;51.046;5.184;2023-05-07T07:52:35;20.00;99.90
15203;DHT22;7702;51.046;5.184;2023-05-07T07:55:01;19.80;99.90
15203;DHT22;7702;51.046;5.184;2023-05-07T07:57:27;19.80;99.90
15203;DHT22;7702;51.046;5.184;2023-05-07T07:59:53;19.80;99.90
15203;DHT22;7702;51.046;5.184;2023-05-07T08:02:18;19.90;99.90
15203;DHT22;7702;51.046;5.184;2023-05-07T08:04:44;19.90;99.90
15203;DHT22;7702;51.046;5.184;2023-05-07T08:07:10;20.10;99.90
15203;DHT22;7702;51.046;5.184;2023-05-07T08:09:37;20.20;99.90
15203;DHT22;7702;51.046;5.184;2023-05-07T08:12:04;20.30;99.90
15203;DHT22;7702;51.046;5.184;2023-05-07T08:14:31;20.20;99.90
15203;DHT22;7702;51.046;5.184;2023-05-07T08:16:56;20.20;99.90
15203;DHT22;7702;51.046;5.184;2023-05-07T08:19:22;20.10;99.90
15203;DHT22;7702;51.046;5.184;2023-05-07T08:21:48;20.00;99.90
15203;DHT22;7702;51.046;5.184;2023-05-07T08:24:14;19.80;99.90
15203;DHT22;7702;51.046;5.184;2023-05-07T08:26:40;19.90;99.90
15203;DHT22;7702;51.046;5.184;2023-05-07T08:29:07;20.00;99.90
15203;DHT22;7702;51.046;5.184;2023-05-07T08:31:33;20.10;99.90
15203;DHT22;7702;51.046;5.184;2023-05-07T08:33:59;20.10;99.90
15203;DHT22;7702;51.046;5.184;2023-05-07T08:36:25;20.10;99.90
15203;DHT22;7702;51.046;5.184;2023-05-07T08:38:51;20.20;99.90
15203;DHT22;7702;51.046;5.184;2023-05-07T08:41:17;20.00;99.90
15203;DHT22;7702;51.046;5.184;2023-05-07T08:43:48;20.10;99.90
15203;DHT22;7702;51.046;5.184;2023-05-07T08:46:20;20.10;99.90
15203;DHT22;7702;51.046;5.184;2023-05-07T08:48:49;20.20;99.90
15203;DHT22;7702;51.046;5.184;2023-05-07T08:51:20;20.30;99.90
15203;DHT22;7702;51.046;5.184;2023-05-07T08:53:47;20.30;99.90
15203;DHT22;7702;51.046;5.184;2023-05-07T08:56:17;20.40;99.90
15203;DHT22;7702;51.046;5.184;2023-05-07T08:58:43;20.30;99.90
15203;DHT22;7702;51.046;5.184;2023-05-07T09:01:12;20.20;99.90
15203;DHT22;7702;51.046;5.184;2023-05-07T09:03:39;20.30;99.90
15203;DHT22;7702;51.046;5.184;2023-05-07T09:06:05;20.20;99.90
15203;DHT22;7702;51.046;5.184;2023-05-07T09:08:35;20.40;99.90
15203;DHT22;7702;51.046;5.184;2023-05-07T09:11:01;20.70;99.90
15203;DHT22;7702;51.046;5.184;2023-05-07T09:13:28;21.20;99.90
15203;DHT22;7702;51.046;5.184;2023-05-07T09:15:54;21.00;99.90
15203;DHT22;7702;51.046;5.184;2023-05-07T09:18:20;20.80;99.90
15203;DHT22;7702;51.046;5.184;2023-05-07T09:20:45;21.20;99.90
15203;DHT22;7702;51.046;5.184;2023-05-07T09:23:11;21.70;99.90
15203;DHT22;7702;51.046;5.184;2023-05-07T09:25:37;21.90;99.90
15203;DHT22;7702;51.046;5.184;2023-05-07T09:28:04;21.90;99.90
15203;DHT22;7702;51.046;5.184;2023-05-07T09:30:30;22.10;99.90
15203;DHT22;7702;51.046;5.184;2023-05-07T09:32:57;22.00;99.90
15203;DHT22;7702;51.046;5.184;2023-05-07T09:35:23;21.90;99.90
15203;DHT22;7702;51.046;5.184;2023-05-07T09:37:59;22.20;99.90
15203;DHT22;7702;51.046;5.184;2023-05-07T09:40:30;22.00;99.90
15203;DHT22;7702;51.046;5.184;2023-05-07T09:42:56;21.70;99.90
15203;DHT22;7702;51.046;5.184;2023-05-07T09:45:26;21.80;99.90
15203;DHT22;7702;51.046;5.184;2023-05-07T09:47:56;22.30;99.90
15203;DHT22;7702;51.046;5.184;2023-05-07T09:50:27;22.40;99.90
15203;DHT22;7702;51.046;5.184;2023-05-07T09:52:57;21.90;99.90
15203;DHT22;7702;51.046;5.184;2023-05-07T09:55:23;22.10;99.90
15203;DHT22;7702;51.046;5.184;2023-05-07T09:57:52;22.20;99.90
15203;DHT22;7702;51.046;5.184;2023-05-07T10:00:19;22.70;99.90
15203;DHT22;7702;51.046;5.184;2023-05-07T10:02:46;22.50;99.90
15203;DHT22;7702;51.046;5.184;2023-05-07T10:05:15;21.70;99.90
15203;DHT22;7702;51.046;5.184;2023-05-07T10:07:41;21.50;99.90
15203;DHT22;7702;51.046;5.184;2023-05-07T10:10:07;21.60;99.90
15203;DHT22;7702;51.046;5.184;2023-05-07T10:12:33;21.40;99.90
15203;DHT22;7702;51.046;5.184;2023-05-07T10:15:09;21.30;99.90
15203;DHT22;7702;51.046;5.184;2023-05-07T10:17:37;21.60;99.90
15203;DHT22;7702;51.046;5.184;2023-05-07T10:20:04;21.70;99.90
15203;DHT22;7702;51.046;5.184;2023-05-07T10:22:44;21.40;99.90
15203;DHT22;7702;51.046;5.184;2023-05-07T10:25:32;21.30;99.90
15203;DHT22;7702;51.046;5.184;2023-05-07T10:28:03;21.20;99.90
15203;DHT22;7702;51.046;5.184;2023-05-07T10:33:22;20.60;99.90
15203;DHT22;7702;51.046;5.184;2023-05-07T10:35:49;20.80;99.90
15203;DHT22;7702;51.046;5.184;2023-05-07T10:38:14;20.60;99.90
15203;DHT22;7702;51.046;5.184;2023-05-07T10:40:40;20.60;99.90
15203;DHT22;7702;51.046;5.184;2023-05-07T10:43:06;20.50;99.90
15203;DHT22;7702;51.046;5.184;2023-05-07T10:45:32;20.30;99.90
15203;DHT22;7702;51.046;5.184;2023-05-07T10:48:17;20.30;99.90
15203;DHT22;7702;51.046;5.184;2023-05-07T10:50:43;20.20;99.90
15203;DHT22;7702;51.046;5.184;2023-05-07T10:56:23;19.80;99.90
15203;DHT22;7702;51.046;5.184;2023-05-07T10:58:49;19.60;99.90
15203;DHT22;7702;51.046;5.184;2023-05-07T11:04:20;19.40;99.90
15203;DHT22;7702;51.046;5.184;2023-05-07T11:12:50;19.30;99.90
15203;DHT22;7702;51.046;5.184;2023-05-07T11:15:36;19.40;99.90
15203;DHT22;7702;51.046;5.184;2023-05-07T11:18:03;19.40;99.90
15203;DHT22;7702;51.046;5.184;2023-05-07T11:26:10;19.20;99.90
15203;DHT22;7702;51.046;5.184;2023-05-07T11:28:40;19.10;99.90
15203;DHT22;7702;51.046;5.184;2023-05-07T11:31:06;19.00;99.90
15203;DHT22;7702;51.046;5.184;2023-05-07T11:33:33;18.70;99.90
15203;DHT22;7702;51.046;5.184;2023-05-07T11:36:02;18.50;99.90
15203;DHT22;7702;51.046;5.184;2023-05-07T11:38:29;18.50;99.90
15203;DHT22;7702;51.046;5.184;2023-05-07T11:40:58;18.50;99.90
15203;DHT22;7702;51.046;5.184;2023-05-07T11:43:26;18.40;99.90
15203;DHT22;7702;51.046;5.184;2023-05-07T11:45:52;18.30;99.90
15203;DHT22;7702;51.046;5.184;2023-05-07T11:48:18;18.10;99.90
15203;DHT22;7702;51.046;5.184;2023-05-07T11:50:53;17.90;99.90
15203;DHT22;7702;51.046;5.184;2023-05-07T11:53:20;17.70;99.90
15203;DHT22;7702;51.046;5.184;2023-05-07T11:55:46;17.70;99.90
15203;DHT22;7702;51.046;5.184;2023-05-07T11:58:18;17.70;99.90
15203;DHT22;7702;51.046;5.184;2023-05-07T12:00:52;17.60;99.90
15203;DHT22;7702;51.046;5.184;2023-05-07T12:03:18;17.80;99.90
15203;DHT22;7702;51.046;5.184;2023-05-07T12:05:45;17.80;99.90
15203;DHT22;7702;51.046;5.184;2023-05-07T12:08:15;17.70;99.90
15203;DHT22;7702;51.046;5.184;2023-05-07T12:10:44;17.70;99.90
15203;DHT22;7702;51.046;5.184;2023-05-07T12:13:21;17.70;99.90
15203;DHT22;7702;51.046;5.184;2023-05-07T12:15:50;17.70;99.90
15203;DHT22;7702;51.046;5.184;2023-05-07T12:18:16;17.80;99.90
15203;DHT22;7702;51.046;5.184;2023-05-07T12:20:42;18.10;99.90
15203;DHT22;7702;51.046;5.184;2023-05-07T12:23:08;18.10;99.90
15203;DHT22;7702;51.046;5.184;2023-05-07T12:25:41;17.90;99.90
15203;DHT22;7702;51.046;5.184;2023-05-07T12:28:16;17.90;99.90
15203;DHT22;7702;51.046;5.184;2023-05-07T12:30:47;18.00;99.90
15203;DHT22;7702;51.046;5.184;2023-05-07T12:33:22;18.30;99.90
15203;DHT22;7702;51.046;5.184;2023-05-07T12:35:48;18.20;99.90
15203;DHT22;7702;51.046;5.184;2023-05-07T12:38:16;18.10;99.90
15203;DHT22;7702;51.046;5.184;2023-05-07T12:40:47;18.20;99.90
15203;DHT22;7702;51.046;5.184;2023-05-07T12:43:26;18.50;99.90
15203;DHT22;7702;51.046;5.184;2023-05-07T12:45:55;18.70;99.90
15203;DHT22;7702;51.046;5.184;2023-05-07T12:48:22;18.80;99.90
15203;DHT22;7702;51.046;5.184;2023-05-07T12:50:51;18.80;99.90
15203;DHT22;7702;51.046;5.184;2023-05-07T12:53:21;18.90;99.90
15203;DHT22;7702;51.046;5.184;2023-05-07T12:55:49;19.10;99.90
15203;DHT22;7702;51.046;5.184;2023-05-07T12:58:25;19.20;99.90
15203;DHT22;7702;51.046;5.184;2023-05-07T13:00:52;19.40;99.90
15203;DHT22;7702;51.046;5.184;2023-05-07T13:03:47;19.10;99.90
15203;DHT22;7702;51.046;5.184;2023-05-07T13:06:13;18.80;99.90
15203;DHT22;7702;51.046;5.184;2023-05-07T13:08:41;18.70;99.90
15203;DHT22;7702;51.046;5.184;2023-05-07T13:11:09;18.60;99.90
15203;DHT22;7702;51.046;5.184;2023-05-07T13:13:37;18.70;99.90
15203;DHT22;7702;51.046;5.184;2023-05-07T13:16:04;18.70;99.90
15203;DHT22;7702;51.046;5.184;2023-05-07T13:18:31;18.70;99.90
15203;DHT22;7702;51.046;5.184;2023-05-07T13:20:58;18.60;99.90
15203;DHT22;7702;51.046;5.184;2023-05-07T13:23:24;18.60;99.90
15203;DHT22;7702;51.046;5.184;2023-05-07T13:25:50;18.50;99.90
15203;DHT22;7702;51.046;5.184;2023-05-07T13:28:19;18.40;99.90
15203;DHT22;7702;51.046;5.184;2023-05-07T13:30:46;18.30;99.90
15203;DHT22;7702;51.046;5.184;2023-05-07T13:33:12;18.10;99.90
15203;DHT22;7702;51.046;5.184;2023-05-07T13:35:38;18.20;99.90
15203;DHT22;7702;51.046;5.184;2023-05-07T13:38:04;18.10;99.90
15203;DHT22;7702;51.046;5.184;2023-05-07T13:40:30;17.90;99.90
15203;DHT22;7702;51.046;5.184;2023-05-07T13:42:57;17.90;99.90
15203;DHT22;7702;51.046;5.184;2023-05-07T13:45:24;17.80;99.90
15203;DHT22;7702;51.046;5.184;2023-05-07T13:47:51;17.90;99.90
15203;DHT22;7702;51.046;5.184;2023-05-07T13:50:17;18.10;99.90
15203;DHT22;7702;51.046;5.184;2023-05-07T13:52:43;18.10;99.90
15203;DHT22;7702;51.046;5.184;2023-05-07T13:55:19;18.20;99.90
15203;DHT22;7702;51.046;5.184;2023-05-07T13:57:45;18.10;99.90
15203;DHT22;7702;51.046;5.184;2023-05-07T14:00:12;17.90;99.90
15203;DHT22;7702;51.046;5.184;2023-05-07T14:02:38;17.90;99.90
15203;DHT22;7702;51.046;5.184;2023-05-07T14:05:04;18.10;99.90
15203;DHT22;7702;51.046;5.184;2023-05-07T14:07:30;18.30;99.90
15203;DHT22;7702;51.046;5.184;2023-05-07T14:09:57;18.60;99.90
15203;DHT22;7702;51.046;5.184;2023-05-07T14:12:22;18.70;99.90
15203;DHT22;7702;51.046;5.184;2023-05-07T14:14:49;18.80;99.90
15203;DHT22;7702;51.046;5.184;2023-05-07T14:17:16;18.60;99.90
15203;DHT22;7702;51.046;5.184;2023-05-07T14:19:43;18.60;99.90
15203;DHT22;7702;51.046;5.184;2023-05-07T14:22:08;18.80;99.90
15203;DHT22;7702;51.046;5.184;2023-05-07T14:24:35;18.90;99.90
15203;DHT22;7702;51.046;5.184;2023-05-07T14:27:01;19.00;99.90
15203;DHT22;7702;51.046;5.184;2023-05-07T14:29:27;19.00;99.90
15203;DHT22;7702;51.046;5.184;2023-05-07T14:31:53;18.90;99.90
15203;DHT22;7702;51.046;5.184;2023-05-07T14:34:19;19.00;99.90
15203;DHT22;7702;51.046;5.184;2023-05-07T14:36:44;19.10;99.90
15203;DHT22;7702;51.046;5.184;2023-05-07T14:39:10;19.00;99.90
15203;DHT22;7702;51.046;5.184;2023-05-07T14:41:36;19.00;99.90
15203;DHT22;7702;51.046;5.184;2023-05-07T14:44:01;18.90;99.90
15203;DHT22;7702;51.046;5.184;2023-05-07T14:46:29;18.70;99.90
15203;DHT22;7702;51.046;5.184;2023-05-07T14:48:56;18.70;99.90
15203;DHT22;7702;51.046;5.184;2023-05-07T14:51:21;18.60;99.90
15203;DHT22;7702;51.046;5.184;2023-05-07T14:53:47;18.50;99.90
15203;DHT22;7702;51.046;5.184;2023-05-07T14:56:14;18.40;99.90
15203;DHT22;7702;51.046;5.184;2023-05-07T14:58:40;18.50;99.90
15203;DHT22;7702;51.046;5.184;2023-05-07T15:01:05;18.60;99.90
15203;DHT22;7702;51.046;5.184;2023-05-07T15:03:31;18.60;99.90
15203;DHT22;7702;51.046;5.184;2023-05-07T15:05:57;18.70;99.90
15203;DHT22;7702;51.046;5.184;2023-05-07T15:08:23;18.90;99.90
15203;DHT22;7702;51.046;5.184;2023-05-07T15:10:49;19.10;99.90
15203;DHT22;7702;51.046;5.184;2023-05-07T15:13:14;18.90;99.90
15203;DHT22;7702;51.046;5.184;2023-05-07T15:15:41;18.70;99.90
15203;DHT22;7702;51.046;5.184;2023-05-07T15:18:09;18.80;99.90
15203;DHT22;7702;51.046;5.184;2023-05-07T15:20:36;19.10;99.90
15203;DHT22;7702;51.046;5.184;2023-05-07T15:23:02;19.10;99.90
15203;DHT22;7702;51.046;5.184;2023-05-07T15:25:30;19.20;99.90
15203;DHT22;7702;51.046;5.184;2023-05-07T15:27:58;19.20;99.90
15203;DHT22;7702;51.046;5.184;2023-05-07T15:30:24;19.20;99.90
15203;DHT22;7702;51.046;5.184;2023-05-07T15:32:50;19.10;99.90
15203;DHT22;7702;51.046;5.184;2023-05-07T15:35:16;19.20;99.90
15203;DHT22;7702;51.046;5.184;2023-05-07T15:37:49;19.00;99.90
15203;DHT22;7702;51.046;5.184;2023-05-07T15:40:16;18.90;99.90
15203;DHT22;7702;51.046;5.184;2023-05-07T15:42:42;19.00;99.90
15203;DHT22;7702;51.046;5.184;2023-05-07T15:45:08;19.10;99.90
15203;DHT22;7702;51.046;5.184;2023-05-07T15:47:35;19.10;99.90
15203;DHT22;7702;51.046;5.184;2023-05-07T15:50:01;19.30;99.90
15203;DHT22;7702;51.046;5.184;2023-05-07T15:52:27;19.50;99.90
15203;DHT22;7702;51.046;5.184;2023-05-07T15:54:54;19.40;99.90
15203;DHT22;7702;51.046;5.184;2023-05-07T15:57:20;19.40;99.90
15203;DHT22;7702;51.046;5.184;2023-05-07T15:59:46;19.30;99.90
15203;DHT22;7702;51.046;5.184;2023-05-07T16:02:12;19.30;99.90
15203;DHT22;7702;51.046;5.184;2023-05-07T16:04:38;19.30;99.90